sensor_id;sensor_type;location;lat;lon;timestamp;pressure;altitude;pressure_sealevel;temperature;humidity
56374;BME280;58212;47.034;7.376;2024-01-15T00:01:34;94468.31;;;0.92;89.45
56374;BME280;58212;47.034;7.376;2024-01-15T00:04:00;94480.63;;;1.11;88.04
56374;BME280;58212;47.034;7.376;2024-01-15T00:06:29;94474.00;;;1.09;88.09
56374;BME280;58212;47.034;7.376;2024-01-15T00:08:58;94467.59;;;1.18;87.15
56374;BME280;58212;47.034;7.376;2024-01-15T00:11:24;94470.25;;;1.31;85.26
56374;BME280;58212;47.034;7.376;2024-01-15T00:13:53;94456.22;;;1.32;83.87
56374;BME280;58212;47.034;7.376;2024-01-15T00:16:20;94453.22;;;1.28;85.35
56374;BME280;58212;47.034;7.376;2024-01-15T00:18:48;94460.22;;;1.34;83.39
56374;BME280;58212;47.034;7.376;2024-01-15T00:21:15;94456.41;;;1.30;83.84
56374;BME280;58212;47.034;7.376;2024-01-15T00:23:42;94458.44;;;1.35;83.67
56374;BME280;58212;47.034;7.376;2024-01-15T00:26:10;94452.81;;;1.31;84.88
56374;BME280;58212;47.034;7.376;2024-01-15T00:28:37;94442.00;;;1.28;85.25
56374;BME280;58212;47.034;7.376;2024-01-15T00:31:04;94434.75;;;1.36;84.10
56374;BME280;58212;47.034;7.376;2024-01-15T00:33:31;94430.94;;;1.32;81.92
56374;BME280;58212;47.034;7.376;2024-01-15T00:35:59;94437.59;;;1.35;81.56
56374;BME280;58212;47.034;7.376;2024-01-15T00:38:26;94439.16;;;1.36;80.91
56374;BME280;58212;47.034;7.376;2024-01-15T00:40:53;94426.75;;;1.44;80.93
56374;BME280;58212;47.034;7.376;2024-01-15T00:43:20;94426.97;;;1.50;81.36
56374;BME280;58212;47.034;7.376;2024-01-15T00:45:46;94427.56;;;1.52;81.12
56374;BME280;58212;47.034;7.376;2024-01-15T00:48:13;94416.94;;;1.60;80.03
56374;BME280;58212;47.034;7.376;2024-01-15T00:50:40;94417.34;;;1.50;79.71
56374;BME280;58212;47.034;7.376;2024-01-15T00:53:08;94420.34;;;1.54;80.03
56374;BME280;58212;47.034;7.376;2024-01-15T00:55:35;94416.53;;;1.56;80.25
56374;BME280;58212;47.034;7.376;2024-01-15T00:58:03;94420.13;;;1.55;78.45
56374;BME280;58212;47.034;7.376;2024-01-15T01:00:30;94411.91;;;1.58;78.71
56374;BME280;58212;47.034;7.376;2024-01-15T01:02:56;94422.56;;;1.57;79.15
56374;BME280;58212;47.034;7.376;2024-01-15T01:05:23;94424.75;;;1.53;78.63
56374;BME280;58212;47.034;7.376;2024-01-15T01:07:50;94424.75;;;1.53;79.91
56374;BME280;58212;47.034;7.376;2024-01-15T01:10:18;94428.78;;;1.56;80.83
56374;BME280;58212;47.034;7.376;2024-01-15T01:12:45;94432.97;;;1.43;80.35
56374;BME280;58212;47.034;7.376;2024-01-15T01:15:11;94415.34;;;1.39;82.32
56374;BME280;58212;47.034;7.376;2024-01-15T01:17:38;94425.75;;;1.45;80.88
56374;BME280;58212;47.034;7.376;2024-01-15T01:20:06;94429.00;;;1.54;80.38
56374;BME280;58212;47.034;7.376;2024-01-15T01:22:34;94435.38;;;1.52;80.56
56374;BME280;58212;47.034;7.376;2024-01-15T01:25:01;94435.59;;;1.50;81.26
56374;BME280;58212;47.034;7.376;2024-01-15T01:27:29;94430.16;;;1.38;82.72
56374;BME280;58212;47.034;7.376;2024-01-15T01:29:56;94430.16;;;1.38;82.34
56374;BME280;58212;47.034;7.376;2024-01-15T01:32:23;94421.75;;;1.43;82.41
56374;BME280;58212;47.034;7.376;2024-01-15T01:34:50;94423.94;;;1.33;81.60
56374;BME280;58212;47.034;7.376;2024-01-15T01:37:17;94430.53;;;1.29;83.26
56374;BME280;58212;47.034;7.376;2024-01-15T01:39:44;94429.97;;;1.46;81.91
56374;BME280;58212;47.034;7.376;2024-01-15T01:42:11;94419.94;;;1.43;82.01
56374;BME280;58212;47.034;7.376;2024-01-15T01:44:39;94407.31;;;1.54;81.98
56374;BME280;58212;47.034;7.376;2024-01-15T01:47:07;94398.28;;;1.56;81.63
56374;BME280;58212;47.034;7.376;2024-01-15T01:49:34;94409.34;;;1.65;80.63
56374;BME280;58212;47.034;7.376;2024-01-15T01:52:02;94404.72;;;1.60;80.05
56374;BME280;58212;47.034;7.376;2024-01-15T01:54:32;94405.69;;;1.66;79.52
56374;BME280;58212;47.034;7.376;2024-01-15T01:57:02;94403.72;;;1.61;79.20
56374;BME280;58212;47.034;7.376;2024-01-15T01:59:30;94400.09;;;1.49;78.54
56374;BME280;58212;47.034;7.376;2024-01-15T02:02:00;94403.28;;;1.51;79.04
56374;BME280;58212;47.034;7.376;2024-01-15T02:04:28;94393.50;;;1.46;77.96
56374;BME280;58212;47.034;7.376;2024-01-15T02:06:54;94386.06;;;1.57;76.97
56374;BME280;58212;47.034;7.376;2024-01-15T02:09:21;94390.06;;;1.59;76.69
56374;BME280;58212;47.034;7.376;2024-01-15T02:11:48;94386.88;;;1.57;77.28
56374;BME280;58212;47.034;7.376;2024-01-15T02:14:15;94376.84;;;1.54;76.87
56374;BME280;58212;47.034;7.376;2024-01-15T02:16:43;94376.25;;;1.39;77.01
56374;BME280;58212;47.034;7.376;2024-01-15T02:19:16;94380.84;;;1.43;78.00
56374;BME280;58212;47.034;7.376;2024-01-15T02:21:43;94386.47;;;1.40;77.88
56374;BME280;58212;47.034;7.376;2024-01-15T02:24:11;94378.84;;;1.39;78.31
56374;BME280;58212;47.034;7.376;2024-01-15T02:26:38;94382.66;;;1.50;78.16
56374;BME280;58212;47.034;7.376;2024-01-15T02:29:07;94390.88;;;1.46;78.08
56374;BME280;58212;47.034;7.376;2024-01-15T02:31:36;94394.09;;;1.48;77.68
56374;BME280;58212;47.034;7.376;2024-01-15T02:34:05;94399.50;;;1.54;78.96
56374;BME280;58212;47.034;7.376;2024-01-15T02:36:32;94404.91;;;1.45;79.24
56374;BME280;58212;47.034;7.376;2024-01-15T02:39:00;94405.69;;;1.39;79.31
56374;BME280;58212;47.034;7.376;2024-01-15T02:41:29;94400.09;;;1.16;79.77
56374;BME280;58212;47.034;7.376;2024-01-15T02:43:56;94395.69;;;1.23;80.08
56374;BME280;58212;47.034;7.376;2024-01-15T02:46:23;94390.88;;;1.33;79.98
56374;BME280;58212;47.034;7.376;2024-01-15T02:48:50;94386.47;;;1.40;79.22
56374;BME280;58212;47.034;7.376;2024-01-15T02:51:17;94382.66;;;1.36;79.84
56374;BME280;58212;47.034;7.376;2024-01-15T02:53:45;94379.81;;;1.25;80.64
56374;BME280;58212;47.034;7.376;2024-01-15T02:56:11;94381.25;;;1.34;81.43
56374;BME280;58212;47.034;7.376;2024-01-15T02:58:39;94375.63;;;1.30;81.41
56374;BME280;58212;47.034;7.376;2024-01-15T03:01:06;94375.44;;;1.45;81.68
56374;BME280;58212;47.034;7.376;2024-01-15T03:03:33;94371.44;;;1.49;81.04
56374;BME280;58212;47.034;7.376;2024-01-15T03:06:01;94370.44;;;1.50;81.21
56374;BME280;58212;47.034;7.376;2024-01-15T03:08:29;94369.03;;;1.34;81.81
56374;BME280;58212;47.034;7.376;2024-01-15T03:10:56;94362.63;;;1.24;82.09
56374;BME280;58212;47.034;7.376;2024-01-15T03:13:23;94374.44;;;1.20;82.56
56374;BME280;58212;47.034;7.376;2024-01-15T03:15:54;94378.25;;;1.24;82.47
56374;BME280;58212;47.034;7.376;2024-01-15T03:18:21;94373.84;;;1.37;82.78
56374;BME280;58212;47.034;7.376;2024-01-15T03:20:47;94371.81;;;1.53;82.63
56374;BME280;58212;47.034;7.376;2024-01-15T03:23:14;94376.22;;;1.32;82.73
56374;BME280;58212;47.034;7.376;2024-01-15T03:25:41;94375.44;;;1.32;82.71
56374;BME280;58212;47.034;7.376;2024-01-15T03:28:09;94375.44;;;1.38;83.14
56374;BME280;58212;47.034;7.376;2024-01-15T03:30:36;94369.03;;;1.34;82.83
56374;BME280;58212;47.034;7.376;2024-01-15T03:33:05;94360.41;;;1.40;82.60
56374;BME280;58212;47.034;7.376;2024-01-15T03:35:32;94353.59;;;1.53;82.18
56374;BME280;58212;47.034;7.376;2024-01-15T03:37:59;94343.75;;;1.41;82.07
56374;BME280;58212;47.034;7.376;2024-01-15T03:40:26;94357.97;;;1.32;82.63
56374;BME280;58212;47.034;7.376;2024-01-15T03:42:53;94361.59;;;1.25;82.85
56374;BME280;58212;47.034;7.376;2024-01-15T03:45:20;94363.78;;;1.21;83.25
56374;BME280;58212;47.034;7.376;2024-01-15T03:47:47;94353.59;;;1.13;84.07
56374;BME280;58212;47.034;7.376;2024-01-15T03:50:15;94349.19;;;1.14;85.15
56374;BME280;58212;47.034;7.376;2024-01-15T03:52:42;94348.56;;;1.18;84.12
56374;BME280;58212;47.034;7.376;2024-01-15T03:55:09;94351.97;;;1.12;84.23
56374;BME280;58212;47.034;7.376;2024-01-15T03:57:36;94344.56;;;1.22;85.13
56374;BME280;58212;47.034;7.376;2024-01-15T04:00:04;94338.34;;;1.36;84.18
56374;BME280;58212;47.034;7.376;2024-01-15T04:02:31;94345.56;;;1.34;84.01
56374;BME280;58212;47.034;7.376;2024-01-15T04:04:59;94345.16;;;1.11;85.06
56374;BME280;58212;47.034;7.376;2024-01-15T04:07:27;94340.56;;;1.13;85.05
56374;BME280;58212;47.034;7.376;2024-01-15T04:09:54;94337.16;;;1.19;85.44
56374;BME280;58212;47.034;7.376;2024-01-15T04:12:22;94340.38;;;1.34;85.99
56374;BME280;58212;47.034;7.376;2024-01-15T04:14:49;94327.31;;;1.41;85.89
56374;BME280;58212;47.034;7.376;2024-01-15T04:17:15;94325.91;;;1.45;85.43
56374;BME280;58212;47.034;7.376;2024-01-15T04:19:43;94327.72;;;1.44;85.26
56374;BME280;58212;47.034;7.376;2024-01-15T04:22:10;94336.16;;;1.46;84.94
56374;BME280;58212;47.034;7.376;2024-01-15T04:24:37;94332.94;;;1.58;85.21
56374;BME280;58212;47.034;7.376;2024-01-15T04:27:04;94323.28;;;1.65;84.48
56374;BME280;58212;47.034;7.376;2024-01-15T04:29:33;94318.88;;;1.72;83.89
56374;BME280;58212;47.034;7.376;2024-01-15T04:31:59;94315.25;;;1.66;84.08
56374;BME280;58212;47.034;7.376;2024-01-15T04:34:26;94311.84;;;1.66;84.30
56374;BME280;58212;47.034;7.376;2024-01-15T04:36:53;94313.06;;;1.63;83.91
56374;BME280;58212;47.034;7.376;2024-01-15T04:39:20;94313.50;;;1.54;84.09
56374;BME280;58212;47.034;7.376;2024-01-15T04:41:49;94313.88;;;1.64;84.16
56374;BME280;58212;47.034;7.376;2024-01-15T04:44:15;94304.84;;;1.60;83.92
56374;BME280;58212;47.034;7.376;2024-01-15T04:46:43;94315.88;;;1.55;84.13
56374;BME280;58212;47.034;7.376;2024-01-15T04:49:10;94313.25;;;1.55;84.33
56374;BME280;58212;47.034;7.376;2024-01-15T04:51:37;94328.31;;;1.53;84.47
56374;BME280;58212;47.034;7.376;2024-01-15T04:54:04;94327.31;;;1.54;84.32
56374;BME280;58212;47.034;7.376;2024-01-15T04:56:31;94325.50;;;1.55;83.87
56374;BME280;58212;47.034;7.376;2024-01-15T04:59:24;94328.69;;;1.63;83.91
56374;BME280;58212;47.034;7.376;2024-01-15T05:01:54;94338.16;;;1.58;84.24
56374;BME280;58212;47.034;7.376;2024-01-15T05:04:22;94338.16;;;1.58;84.22
56374;BME280;58212;47.034;7.376;2024-01-15T05:06:50;94336.31;;;1.58;84.15
56374;BME280;58212;47.034;7.376;2024-01-15T05:09:17;94340.34;;;1.54;84.48
56374;BME280;58212;47.034;7.376;2024-01-15T05:11:44;94341.94;;;1.55;84.06
56374;BME280;58212;47.034;7.376;2024-01-15T05:14:11;94333.53;;;1.53;84.23
56374;BME280;58212;47.034;7.376;2024-01-15T05:16:39;94333.13;;;1.56;84.34
56374;BME280;58212;47.034;7.376;2024-01-15T05:19:07;94337.94;;;1.53;84.80
56374;BME280;58212;47.034;7.376;2024-01-15T05:21:35;94321.50;;;1.52;84.60
56374;BME280;58212;47.034;7.376;2024-01-15T05:24:02;94329.09;;;1.60;84.95
56374;BME280;58212;47.034;7.376;2024-01-15T05:26:29;94335.31;;;1.59;84.49
56374;BME280;58212;47.034;7.376;2024-01-15T05:28:56;94329.31;;;1.52;85.29
56374;BME280;58212;47.034;7.376;2024-01-15T05:31:23;94331.91;;;1.52;84.67
56374;BME280;58212;47.034;7.376;2024-01-15T05:33:51;94333.91;;;1.63;85.59
56374;BME280;58212;47.034;7.376;2024-01-15T05:36:18;94330.50;;;1.63;84.24
56374;BME280;58212;47.034;7.376;2024-01-15T05:38:46;94334.72;;;1.51;84.81
56374;BME280;58212;47.034;7.376;2024-01-15T05:41:13;94326.91;;;1.51;85.46
56374;BME280;58212;47.034;7.376;2024-01-15T05:43:40;94334.72;;;1.51;85.32
56374;BME280;58212;47.034;7.376;2024-01-15T05:46:07;94339.53;;;1.60;85.35
56374;BME280;58212;47.034;7.376;2024-01-15T05:48:34;94336.72;;;1.62;85.15
56374;BME280;58212;47.034;7.376;2024-01-15T05:51:03;94332.72;;;1.59;85.36
56374;BME280;58212;47.034;7.376;2024-01-15T05:53:30;94341.75;;;1.57;85.09
56374;BME280;58212;47.034;7.376;2024-01-15T05:55:57;94334.72;;;1.57;85.37
56374;BME280;58212;47.034;7.376;2024-01-15T05:58:25;94336.34;;;1.52;85.27
56374;BME280;58212;47.034;7.376;2024-01-15T06:00:52;94338.34;;;1.50;85.46
56374;BME280;58212;47.034;7.376;2024-01-15T06:03:18;94336.34;;;1.45;85.87
56374;BME280;58212;47.034;7.376;2024-01-15T06:05:45;94330.13;;;1.53;86.30
56374;BME280;58212;47.034;7.376;2024-01-15T06:08:13;94334.13;;;1.48;85.28
56374;BME280;58212;47.034;7.376;2024-01-15T06:10:41;94337.13;;;1.52;85.44
56374;BME280;58212;47.034;7.376;2024-01-15T06:13:09;94335.91;;;1.55;85.75
56374;BME280;58212;47.034;7.376;2024-01-15T06:15:39;94336.72;;;1.62;85.94
56374;BME280;58212;47.034;7.376;2024-01-15T06:18:06;94339.16;;;1.50;85.39
56374;BME280;58212;47.034;7.376;2024-01-15T06:20:33;94335.53;;;1.51;85.03
56374;BME280;58212;47.034;7.376;2024-01-15T06:23:00;94334.31;;;1.60;85.40
56374;BME280;58212;47.034;7.376;2024-01-15T06:25:28;94335.31;;;1.66;84.85
56374;BME280;58212;47.034;7.376;2024-01-15T06:27:54;94330.09;;;1.59;84.79
56374;BME280;58212;47.034;7.376;2024-01-15T06:30:22;94331.53;;;1.48;85.15
56374;BME280;58212;47.034;7.376;2024-01-15T06:32:49;94334.91;;;1.56;85.33
56374;BME280;58212;47.034;7.376;2024-01-15T06:35:15;94334.31;;;1.47;85.76
56374;BME280;58212;47.034;7.376;2024-01-15T06:37:42;94331.72;;;1.54;85.81
56374;BME280;58212;47.034;7.376;2024-01-15T06:40:09;94335.53;;;1.58;85.66
56374;BME280;58212;47.034;7.376;2024-01-15T06:42:38;94334.53;;;1.52;85.47
56374;BME280;58212;47.034;7.376;2024-01-15T06:45:06;94334.91;;;1.56;85.75
56374;BME280;58212;47.034;7.376;2024-01-15T06:47:33;94343.75;;;1.55;85.65
56374;BME280;58212;47.034;7.376;2024-01-15T06:50:00;94342.16;;;1.60;85.38
56374;BME280;58212;47.034;7.376;2024-01-15T06:52:27;94348.78;;;1.50;85.21
56374;BME280;58212;47.034;7.376;2024-01-15T06:54:54;94339.13;;;1.43;85.86
56374;BME280;58212;47.034;7.376;2024-01-15T06:57:21;94342.75;;;1.36;86.58
56374;BME280;58212;47.034;7.376;2024-01-15T06:59:49;94338.94;;;1.45;85.66
56374;BME280;58212;47.034;7.376;2024-01-15T07:02:16;94341.34;;;1.53;85.90
56374;BME280;58212;47.034;7.376;2024-01-15T07:04:42;94337.75;;;1.54;85.44
56374;BME280;58212;47.034;7.376;2024-01-15T07:07:09;94329.53;;;1.57;85.46
56374;BME280;58212;47.034;7.376;2024-01-15T07:09:36;94334.34;;;1.54;85.01
56374;BME280;58212;47.034;7.376;2024-01-15T07:12:03;94339.91;;;1.70;84.93
56374;BME280;58212;47.034;7.376;2024-01-15T07:14:30;94334.09;;;1.75;83.90
56374;BME280;58212;47.034;7.376;2024-01-15T07:16:58;94343.75;;;1.68;83.86
56374;BME280;58212;47.034;7.376;2024-01-15T07:19:25;94336.13;;;1.60;84.13
56374;BME280;58212;47.034;7.376;2024-01-15T07:21:53;94345.97;;;1.44;84.67
56374;BME280;58212;47.034;7.376;2024-01-15T07:24:20;94344.16;;;1.45;84.60
56374;BME280;58212;47.034;7.376;2024-01-15T07:26:47;94350.38;;;1.44;84.87
56374;BME280;58212;47.034;7.376;2024-01-15T07:29:13;94347.78;;;1.31;85.96
56374;BME280;58212;47.034;7.376;2024-01-15T07:31:40;94346.75;;;1.19;85.82
56374;BME280;58212;47.034;7.376;2024-01-15T07:34:15;94347.97;;;1.16;85.94
56374;BME280;58212;47.034;7.376;2024-01-15T07:36:44;94353.78;;;1.25;84.80
56374;BME280;58212;47.034;7.376;2024-01-15T07:39:12;94346.56;;;1.20;85.48
56374;BME280;58212;47.034;7.376;2024-01-15T07:41:40;94345.38;;;1.29;85.60
56374;BME280;58212;47.034;7.376;2024-01-15T07:44:07;94351.38;;;1.17;85.36
56374;BME280;58212;47.034;7.376;2024-01-15T07:46:33;94344.34;;;1.04;86.00
56374;BME280;58212;47.034;7.376;2024-01-15T07:49:00;94351.56;;;1.15;85.95
56374;BME280;58212;47.034;7.376;2024-01-15T07:51:28;94349.56;;;1.11;85.24
56374;BME280;58212;47.034;7.376;2024-01-15T07:53:55;94352.56;;;1.08;85.37
56374;BME280;58212;47.034;7.376;2024-01-15T07:56:22;94356.16;;;1.07;85.31
56374;BME280;58212;47.034;7.376;2024-01-15T07:58:49;94358.59;;;1.02;85.23
56374;BME280;58212;47.034;7.376;2024-01-15T08:01:16;94364.97;;;0.92;85.18
56374;BME280;58212;47.034;7.376;2024-01-15T08:03:42;94362.19;;;0.87;85.28
56374;BME280;58212;47.034;7.376;2024-01-15T08:06:11;94361.34;;;0.80;85.44
56374;BME280;58212;47.034;7.376;2024-01-15T08:08:39;94362.19;;;0.87;85.92
56374;BME280;58212;47.034;7.376;2024-01-15T08:11:06;94371.19;;;0.98;86.20
56374;BME280;58212;47.034;7.376;2024-01-15T08:13:33;94358.59;;;0.95;84.75
56374;BME280;58212;47.034;7.376;2024-01-15T08:16:00;94356.75;;;0.89;85.25
56374;BME280;58212;47.034;7.376;2024-01-15T08:18:27;94355.34;;;0.93;84.95
56374;BME280;58212;47.034;7.376;2024-01-15T08:20:54;94350.13;;;0.80;84.28
56374;BME280;58212;47.034;7.376;2024-01-15T08:23:21;94346.97;;;0.97;85.65
56374;BME280;58212;47.034;7.376;2024-01-15T08:25:49;94350.19;;;1.06;85.67
56374;BME280;58212;47.034;7.376;2024-01-15T08:28:16;94346.91;;;0.78;86.15
56374;BME280;58212;47.034;7.376;2024-01-15T08:30:43;94352.34;;;0.83;85.65
56374;BME280;58212;47.034;7.376;2024-01-15T08:33:09;94362.53;;;0.78;85.09
56374;BME280;58212;47.034;7.376;2024-01-15T08:35:36;94363.97;;;0.87;85.68
56374;BME280;58212;47.034;7.376;2024-01-15T08:38:03;94351.94;;;0.86;86.44
56374;BME280;58212;47.034;7.376;2024-01-15T08:40:33;94364.38;;;1.04;85.56
56374;BME280;58212;47.034;7.376;2024-01-15T08:43:01;94351.94;;;0.92;86.12
56374;BME280;58212;47.034;7.376;2024-01-15T08:45:29;94347.72;;;0.78;86.10
56374;BME280;58212;47.034;7.376;2024-01-15T08:47:56;94345.75;;;0.80;86.22
56374;BME280;58212;47.034;7.376;2024-01-15T08:50:22;94342.91;;;0.82;86.52
56374;BME280;58212;47.034;7.376;2024-01-15T08:52:49;94345.75;;;0.80;86.78
56374;BME280;58212;47.034;7.376;2024-01-15T08:55:16;94350.56;;;0.90;86.45
56374;BME280;58212;47.034;7.376;2024-01-15T08:57:43;94343.31;;;0.79;85.82
56374;BME280;58212;47.034;7.376;2024-01-15T09:00:13;94336.31;;;0.86;85.64
56374;BME280;58212;47.034;7.376;2024-01-15T09:02:42;94332.09;;;0.85;85.66
56374;BME280;58212;47.034;7.376;2024-01-15T09:05:09;94329.91;;;0.82;86.19
56374;BME280;58212;47.034;7.376;2024-01-15T09:07:35;94333.72;;;0.73;86.07
56374;BME280;58212;47.034;7.376;2024-01-15T09:10:03;94333.72;;;0.86;86.21
56374;BME280;58212;47.034;7.376;2024-01-15T09:12:54;94330.72;;;0.82;86.09
56374;BME280;58212;47.034;7.376;2024-01-15T09:15:23;94329.72;;;0.83;86.85
56374;BME280;58212;47.034;7.376;2024-01-15T09:17:51;94322.50;;;0.92;86.11
56374;BME280;58212;47.034;7.376;2024-01-15T09:20:19;94327.69;;;0.85;86.60
56374;BME280;58212;47.034;7.376;2024-01-15T09:22:45;94330.13;;;0.87;86.98
56374;BME280;58212;47.034;7.376;2024-01-15T09:25:13;94321.72;;;1.05;85.89
56374;BME280;58212;47.034;7.376;2024-01-15T09:27:40;94337.16;;;1.06;85.72
56374;BME280;58212;47.034;7.376;2024-01-15T09:30:10;94331.34;;;1.24;86.41
56374;BME280;58212;47.034;7.376;2024-01-15T09:32:38;94343.56;;;1.23;86.36
56374;BME280;58212;47.034;7.376;2024-01-15T09:35:06;94340.97;;;1.43;85.58
56374;BME280;58212;47.034;7.376;2024-01-15T09:37:32;94335.31;;;1.59;85.13
56374;BME280;58212;47.034;7.376;2024-01-15T09:39:59;94336.53;;;1.63;83.97
56374;BME280;58212;47.034;7.376;2024-01-15T09:42:27;94332.06;;;1.77;83.86
56374;BME280;58212;47.034;7.376;2024-01-15T09:44:55;94333.47;;;1.86;84.00
56374;BME280;58212;47.034;7.376;2024-01-15T09:47:22;94331.44;;;1.94;83.13
56374;BME280;58212;47.034;7.376;2024-01-15T09:49:51;94334.66;;;1.96;81.81
56374;BME280;58212;47.034;7.376;2024-01-15T09:52:19;94334.47;;;1.98;81.66
56374;BME280;58212;47.034;7.376;2024-01-15T09:54:46;94330.41;;;2.09;81.88
56374;BME280;58212;47.034;7.376;2024-01-15T09:57:13;94323.59;;;2.01;80.13
56374;BME280;58212;47.034;7.376;2024-01-15T09:59:42;94329.19;;;2.11;80.50
56374;BME280;58212;47.034;7.376;2024-01-15T10:02:10;94338.19;;;2.22;79.98
56374;BME280;58212;47.034;7.376;2024-01-15T10:04:40;94335.56;;;2.22;79.96
56374;BME280;58212;47.034;7.376;2024-01-15T10:07:08;94334.56;;;2.23;80.08
56374;BME280;58212;47.034;7.376;2024-01-15T10:09:36;94338.53;;;2.32;79.51
56374;BME280;58212;47.034;7.376;2024-01-15T10:12:04;94330.47;;;2.40;78.61
56374;BME280;58212;47.034;7.376;2024-01-15T10:14:31;94331.28;;;2.40;78.19
56374;BME280;58212;47.034;7.376;2024-01-15T10:16:58;94323.09;;;2.30;78.67
56374;BME280;58212;47.034;7.376;2024-01-15T10:19:24;94320.41;;;2.43;79.16
56374;BME280;58212;47.034;7.376;2024-01-15T10:21:51;94317.03;;;2.36;78.11
56374;BME280;58212;47.034;7.376;2024-01-15T10:24:19;94314.34;;;2.50;77.27
56374;BME280;58212;47.034;7.376;2024-01-15T10:26:46;94313.50;;;2.62;77.60
56374;BME280;58212;47.034;7.376;2024-01-15T10:29:38;94297.63;;;2.64;77.97
56374;BME280;58212;47.034;7.376;2024-01-15T10:32:06;94296.97;;;2.75;76.25
56374;BME280;58212;47.034;7.376;2024-01-15T10:34:37;94297.88;;;2.56;75.77
56374;BME280;58212;47.034;7.376;2024-01-15T10:37:04;94298.53;;;2.76;78.19
56374;BME280;58212;47.034;7.376;2024-01-15T10:39:35;94294.72;;;2.78;76.09
56374;BME280;58212;47.034;7.376;2024-01-15T10:42:02;94288.56;;;2.66;76.05
56374;BME280;58212;47.034;7.376;2024-01-15T10:44:30;94279.81;;;2.79;76.61
56374;BME280;58212;47.034;7.376;2024-01-15T10:47:22;94280.31;;;2.94;75.82
56374;BME280;58212;47.034;7.376;2024-01-15T10:49:50;94282.94;;;2.94;75.96
56374;BME280;58212;47.034;7.376;2024-01-15T10:52:18;94294.50;;;3.05;76.50
56374;BME280;58212;47.034;7.376;2024-01-15T10:54:47;94300.03;;;2.97;75.59
56374;BME280;58212;47.034;7.376;2024-01-15T10:57:16;94296.56;;;3.03;75.52
56374;BME280;58212;47.034;7.376;2024-01-15T10:59:43;94310.63;;;3.02;74.77
56374;BME280;58212;47.034;7.376;2024-01-15T11:02:12;94297.91;;;3.12;75.27
56374;BME280;58212;47.034;7.376;2024-01-15T11:04:39;94290.09;;;3.05;75.22
56374;BME280;58212;47.034;7.376;2024-01-15T11:07:06;94283.81;;;3.13;75.03
56374;BME280;58212;47.034;7.376;2024-01-15T11:09:34;94288.47;;;3.11;77.10
56374;BME280;58212;47.034;7.376;2024-01-15T11:12:09;94286.31;;;3.26;77.88
56374;BME280;58212;47.034;7.376;2024-01-15T11:14:39;94283.41;;;3.34;76.69
56374;BME280;58212;47.034;7.376;2024-01-15T11:17:06;94283.66;;;3.32;76.31
56374;BME280;58212;47.034;7.376;2024-01-15T11:19:37;94276.72;;;3.20;74.82
56374;BME280;58212;47.034;7.376;2024-01-15T11:22:07;94281.00;;;3.14;75.53
56374;BME280;58212;47.034;7.376;2024-01-15T11:24:37;94288.13;;;3.25;76.05
56374;BME280;58212;47.034;7.376;2024-01-15T11:27:06;94291.44;;;3.14;74.75
56374;BME280;58212;47.034;7.376;2024-01-15T11:29:35;94280.50;;;3.24;75.14
56374;BME280;58212;47.034;7.376;2024-01-15T11:32:03;94272.81;;;3.29;76.12
56374;BME280;58212;47.034;7.376;2024-01-15T11:34:56;94277.81;;;3.30;76.15
56374;BME280;58212;47.034;7.376;2024-01-15T11:37:29;94291.69;;;3.06;77.21
56374;BME280;58212;47.034;7.376;2024-01-15T11:40:18;94299.13;;;3.09;77.54
56374;BME280;58212;47.034;7.376;2024-01-15T11:42:46;94284.53;;;3.26;75.41
56374;BME280;58212;47.034;7.376;2024-01-15T11:45:15;94291.50;;;3.32;76.02
56374;BME280;58212;47.034;7.376;2024-01-15T11:48:08;94290.59;;;3.20;74.50
56374;BME280;58212;47.034;7.376;2024-01-15T11:50:40;94277.00;;;3.55;74.08
56374;BME280;58212;47.034;7.376;2024-01-15T11:53:15;94269.41;;;3.89;72.57
56374;BME280;58212;47.034;7.376;2024-01-15T11:55:44;94273.25;;;3.87;72.12
56374;BME280;58212;47.034;7.376;2024-01-15T11:58:11;94273.97;;;3.94;72.77
56374;BME280;58212;47.034;7.376;2024-01-15T12:00:43;94279.06;;;3.89;71.26
56374;BME280;58212;47.034;7.376;2024-01-15T12:03:11;94275.44;;;4.08;72.89
56374;BME280;58212;47.034;7.376;2024-01-15T12:05:38;94264.75;;;3.91;71.11
56374;BME280;58212;47.034;7.376;2024-01-15T12:08:05;94248.25;;;3.73;71.29
56374;BME280;58212;47.034;7.376;2024-01-15T12:10:37;94250.81;;;3.18;71.15
56374;BME280;58212;47.034;7.376;2024-01-15T12:13:05;94243.41;;;3.15;71.50
56374;BME280;58212;47.034;7.376;2024-01-15T12:15:36;94249.31;;;3.04;70.00
56374;BME280;58212;47.034;7.376;2024-01-15T12:18:05;94245.72;;;2.99;70.47
56374;BME280;58212;47.034;7.376;2024-01-15T12:20:33;94248.25;;;3.12;70.55
56374;BME280;58212;47.034;7.376;2024-01-15T12:23:25;94256.78;;;3.25;69.78
56374;BME280;58212;47.034;7.376;2024-01-15T12:25:52;94262.84;;;3.19;69.35
56374;BME280;58212;47.034;7.376;2024-01-15T12:28:20;94257.41;;;3.21;68.95
56374;BME280;58212;47.034;7.376;2024-01-15T12:30:48;94252.50;;;3.06;68.37
56374;BME280;58212;47.034;7.376;2024-01-15T12:33:18;94254.53;;;3.04;67.46
56374;BME280;58212;47.034;7.376;2024-01-15T12:35:46;94258.59;;;3.00;68.14
56374;BME280;58212;47.034;7.376;2024-01-15T12:38:14;94266.19;;;3.02;66.88
56374;BME280;58212;47.034;7.376;2024-01-15T12:40:43;94273.47;;;3.00;66.37
56374;BME280;58212;47.034;7.376;2024-01-15T12:43:11;94259.91;;;3.09;66.24
56374;BME280;58212;47.034;7.376;2024-01-15T12:45:38;94261.59;;;3.04;66.29
56374;BME280;58212;47.034;7.376;2024-01-15T12:48:06;94275.47;;;2.97;66.73
56374;BME280;58212;47.034;7.376;2024-01-15T12:50:35;94279.56;;;2.87;65.12
56374;BME280;58212;47.034;7.376;2024-01-15T12:53:03;94287.34;;;3.25;66.66
56374;BME280;58212;47.034;7.376;2024-01-15T12:55:30;94272.09;;;3.22;65.54
56374;BME280;58212;47.034;7.376;2024-01-15T12:57:57;94269.59;;;3.27;66.67
56374;BME280;58212;47.034;7.376;2024-01-15T13:00:24;94272.97;;;3.09;66.71
56374;BME280;58212;47.034;7.376;2024-01-15T13:02:52;94271.09;;;3.16;66.56
56374;BME280;58212;47.034;7.376;2024-01-15T13:05:20;94280.56;;;3.17;66.03
56374;BME280;58212;47.034;7.376;2024-01-15T13:07:48;94285.09;;;3.28;65.42
56374;BME280;58212;47.034;7.376;2024-01-15T13:10:15;94292.88;;;3.10;64.83
56374;BME280;58212;47.034;7.376;2024-01-15T13:12:42;94288.97;;;2.94;64.02
56374;BME280;58212;47.034;7.376;2024-01-15T13:15:09;94299.53;;;2.81;65.12